createdAt,value
2023-05-19T00:03:21.826Z,96358.59
2023-05-19T00:08:24.673Z,96361.78
2023-05-19T00:13:27.167Z,96357.09
2023-05-19T00:18:29.837Z,96351.63
2023-05-19T00:23:31.491Z,96350.84
2023-05-19T00:28:33.122Z,96341.44
2023-05-19T00:33:34.873Z,96333.22
2023-05-19T00:38:37.104Z,96338.34
2023-05-19T00:43:38.694Z,96334.03
2023-05-19T00:48:40.368Z,96327.38
2023-05-19T00:53:43.925Z,96318.41
2023-05-19T00:58:46.059Z,96310.53
2023-05-19T01:03:48.481Z,96302.69
2023-05-19T01:08:51.649Z,96308.63
2023-05-19T01:13:53.268Z,96316.50
2023-05-19T01:19:14.174Z,96308.31
2023-05-19T01:24:37.333Z,96309.94
2023-05-19T01:30:00.321Z,96313.09
2023-05-19T01:35:04.675Z,96315.88
2023-05-19T01:40:08.342Z,96311.22
2023-05-19T01:45:10.620Z,96309.28
2023-05-19T01:50:12.555Z,96311.66
2023-05-19T01:55:14.227Z,96309.31
2023-05-19T02:00:31.036Z,96310.91
2023-05-19T02:05:41.775Z,96312.50
2023-05-19T02:10:49.360Z,96300.75
2023-05-19T02:15:54.603Z,96302.31
2023-05-19T02:20:56.209Z,96294.91
2023-05-19T02:25:59.221Z,96297.28
2023-05-19T02:31:01.477Z,96290.19
2023-05-19T02:36:04.399Z,96298.84
2023-05-19T02:41:06.025Z,96294.91
2023-05-19T02:46:07.689Z,96289.41
2023-05-19T02:51:10.251Z,96293.72
2023-05-19T02:56:11.984Z,96288.66
2023-05-19T03:01:13.589Z,96284.34
2023-05-19T03:06:15.600Z,96283.16
2023-05-19T03:11:17.645Z,96281.59
2023-05-19T03:16:19.220Z,96286.31
2023-05-19T03:21:20.890Z,96292.19
2023-05-19T03:26:23.144Z,96291.41
2023-05-19T03:31:26.716Z,96291.00
2023-05-19T03:36:32.231Z,96291.41
2023-05-19T03:41:34.947Z,96298.84
2023-05-19T03:46:37.585Z,96295.72
2023-05-19T03:51:54.570Z,96301.97
2023-05-19T03:57:05.053Z,96305.91
2023-05-19T04:02:08.343Z,96309.06
2023-05-19T04:07:10.101Z,96309.84
2023-05-19T04:12:12.761Z,96312.16
2023-05-19T04:17:14.456Z,96298.06
2023-05-19T04:22:16.133Z,96298.06
2023-05-19T04:27:18.214Z,96301.19
2023-05-19T04:32:19.755Z,96291.38
2023-05-19T04:37:21.589Z,96305.13
2023-05-19T04:42:26.128Z,96303.53
2023-05-19T04:47:30.038Z,96301.97
2023-05-19T04:52:32.175Z,96309.41
2023-05-19T04:57:34.116Z,96296.47
2023-05-19T05:02:37.061Z,96309.00
2023-05-19T05:07:39.250Z,96307.44
2023-05-19T05:12:41.365Z,96299.63
2023-05-19T05:17:43.691Z,96292.13
2023-05-19T05:22:45.681Z,96285.09
2023-05-19T05:27:48.367Z,96280.75
2023-05-19T05:32:50.017Z,96283.84
2023-05-19T05:38:04.197Z,96285.03
2023-05-19T05:43:06.123Z,96288.53
2023-05-19T05:48:12.496Z,96286.53
2023-05-19T05:53:19.088Z,96284.16
2023-05-19T05:58:22.756Z,96283.72
2023-05-19T06:03:26.107Z,96287.22
2023-05-19T06:08:29.245Z,96286.41
2023-05-19T06:13:30.955Z,96278.91
2023-05-19T06:18:32.719Z,96275.75
2023-05-19T06:23:36.105Z,96269.00
2023-05-19T06:28:39.564Z,96272.13
2023-05-19T06:33:41.118Z,96277.94
2023-05-19T06:38:42.717Z,96281.47
2023-05-19T06:43:44.812Z,96292.00
2023-05-19T06:48:49.120Z,96288.81
2023-05-19T06:53:53.280Z,96268.31
2023-05-19T06:58:54.900Z,96276.88
2023-05-19T07:04:00.891Z,96275.19
2023-05-19T07:09:05.199Z,96272.38
2023-05-19T07:14:07.239Z,96266.44
2023-05-19T07:19:08.987Z,96261.25
2023-05-19T07:24:10.905Z,96267.47
2023-05-19T07:29:12.582Z,96261.06
2023-05-19T07:34:14.144Z,96262.94
2023-05-19T07:39:15.784Z,96252.97
2023-05-19T07:44:17.348Z,96258.38
2023-05-19T07:49:19.093Z,96256.19
2023-05-19T07:54:21.220Z,96259.50
2023-05-19T07:59:22.928Z,96264.78
2023-05-19T08:04:24.540Z,96247.31
2023-05-19T08:09:26.192Z,96253.88
2023-05-19T08:14:27.994Z,96246.31
2023-05-19T08:19:29.636Z,96249.78
2023-05-19T08:24:32.749Z,96246.97
2023-05-19T08:29:34.336Z,96244.56
2023-05-19T08:34:36.046Z,96243.66
2023-05-19T08:39:37.743Z,96236.91
2023-05-19T08:44:40.130Z,96234.50
2023-05-19T08:49:51.909Z,96224.59
2023-05-19T08:54:57.103Z,96232.41
2023-05-19T08:59:59.366Z,96223.94
2023-05-19T09:05:01.428Z,96219.19
2023-05-19T09:10:04.328Z,96198.63
2023-05-19T09:15:07.771Z,96221.28
2023-05-19T09:20:11.531Z,96205.31
2023-05-19T09:25:23.645Z,96195.25
2023-05-19T09:30:26.008Z,96190.31
2023-05-19T09:35:27.589Z,96190.09
2023-05-19T09:40:29.175Z,96199.47
2023-05-19T09:45:30.776Z,96193.81
2023-05-19T09:50:32.829Z,96188.19
2023-05-19T09:55:34.643Z,96182.94
2023-05-19T10:00:38.295Z,96180.81
2023-05-19T10:05:41.627Z,96163.56
2023-05-19T10:10:46.233Z,96169.53
2023-05-19T10:15:58.241Z,96154.25
2023-05-19T10:21:02.291Z,96156.78
2023-05-19T10:26:06.539Z,96169.91
2023-05-19T10:31:13.403Z,96162.66
2023-05-19T10:36:29.527Z,96157.13
2023-05-19T10:41:47.111Z,96157.56
2023-05-19T10:46:48.895Z,96146.16
2023-05-19T10:51:54.896Z,96148.06
2023-05-19T10:56:56.754Z,96142.44
2023-05-19T11:02:06.436Z,96146.53
2023-05-19T11:07:10.530Z,96144.38
2023-05-19T11:12:12.145Z,96134.25
2023-05-19T11:17:15.547Z,96148.22
2023-05-19T11:22:17.044Z,96143.38
2023-05-19T11:27:32.966Z,96136.53
2023-05-19T11:32:35.854Z,96126.06
2023-05-19T11:37:37.536Z,96125.56
2023-05-19T11:42:39.192Z,96125.97
2023-05-19T11:47:57.277Z,96129.22
2023-05-19T11:53:02.613Z,96119.72
2023-05-19T11:58:05.831Z,96115.06
2023-05-19T12:03:09.129Z,96116.53
2023-05-19T12:08:12.349Z,96108.22
2023-05-19T12:13:14.820Z,96113.47
2023-05-19T12:18:16.359Z,96113.88
2023-05-19T12:23:18.310Z,96108.91
2023-05-19T12:28:20.067Z,96118.69
2023-05-19T12:33:22.830Z,96103.34
2023-05-19T12:38:24.396Z,96103.13
2023-05-19T12:43:25.927Z,96095.31
2023-05-19T12:48:28.545Z,96102.75
2023-05-19T12:53:30.159Z,96100.50
2023-05-19T12:58:34.291Z,96087.94
2023-05-19T13:03:41.224Z,96099.03
2023-05-19T13:08:42.835Z,96086.78
2023-05-19T13:13:44.413Z,96086.19
2023-05-19T13:18:46.063Z,96082.41
2023-05-19T13:23:47.675Z,96086.03
2023-05-19T13:28:49.339Z,96085.75
2023-05-19T13:33:50.883Z,96064.81
2023-05-19T13:38:52.630Z,96068.75
2023-05-19T13:43:54.253Z,96067.09
2023-05-19T13:48:55.888Z,96066.88
2023-05-19T13:53:57.538Z,96063.59
2023-05-19T13:58:59.161Z,96053.84
2023-05-19T14:04:01.275Z,96058.53
2023-05-19T14:09:03.243Z,96048.00
2023-05-19T14:14:04.898Z,96045.88
2023-05-19T14:19:06.730Z,96052.66
2023-05-19T14:24:08.450Z,96051.72
2023-05-19T14:29:10.021Z,96050.31
2023-05-19T14:34:11.630Z,96045.78
2023-05-19T14:39:13.321Z,96038.06
2023-05-19T14:44:14.919Z,96030.94
2023-05-19T14:49:16.488Z,96036.81
2023-05-19T14:54:18.052Z,96031.56
2023-05-19T14:59:19.609Z,96032.00
2023-05-19T15:04:21.456Z,96035.72
2023-05-19T15:09:23.192Z,96044.34
2023-05-19T15:14:24.819Z,96044.94
2023-05-19T15:19:26.948Z,96046.75
2023-05-19T15:24:28.687Z,96048.56
2023-05-19T15:29:30.230Z,96033.25
2023-05-19T15:34:31.791Z,96033.72
2023-05-19T15:39:33.706Z,96027.25
2023-05-19T15:44:36.611Z,96042.25
2023-05-19T15:49:38.226Z,96035.50
2023-05-19T15:54:39.807Z,96035.53
2023-05-19T15:59:41.422Z,96036.97
2023-05-19T16:04:43.018Z,96023.50
2023-05-19T16:09:44.702Z,96022.09
2023-05-19T16:14:46.211Z,96024.38
2023-05-19T16:19:47.784Z,96023.56
2023-05-19T16:24:49.326Z,96018.09
2023-05-19T16:29:50.990Z,96025.31
2023-05-19T16:34:52.566Z,96027.03
2023-05-19T16:39:54.171Z,96021.84
2023-05-19T16:44:55.888Z,96018.75
2023-05-19T16:49:57.452Z,96020.66
2023-05-19T16:54:58.973Z,96021.97
2023-05-19T17:00:00.470Z,96012.25
2023-05-19T17:05:02.030Z,96006.06
2023-05-19T17:10:03.886Z,96003.28
2023-05-19T17:15:06.455Z,96003.94
2023-05-19T17:20:08.543Z,96010.75
2023-05-19T17:25:10.245Z,96007.72
2023-05-19T17:30:13.308Z,96020.69
2023-05-19T17:35:14.880Z,96018.69
2023-05-19T17:40:16.543Z,96028.13
2023-05-19T17:45:18.251Z,96032.31
2023-05-19T17:50:19.918Z,96027.53
2023-05-19T17:55:21.967Z,96028.28
2023-05-19T18:00:24.995Z,96026.09
2023-05-19T18:05:27.288Z,96016.66
2023-05-19T18:10:31.359Z,96017.16
2023-05-19T18:15:33.509Z,96014.09
2023-05-19T18:20:35.302Z,96015.84
2023-05-19T18:25:37.349Z,96018.94
2023-05-19T18:30:38.942Z,96023.09
2023-05-19T18:35:40.775Z,96018.06
2023-05-19T18:40:45.462Z,96012.19
2023-05-19T18:45:47.197Z,96017.06
2023-05-19T18:50:48.753Z,96021.44
2023-05-19T18:55:50.339Z,96019.44
2023-05-19T19:00:55.181Z,96030.06
2023-05-19T19:05:57.884Z,96032.41
2023-05-19T19:11:01.060Z,96028.38
2023-05-19T19:16:02.888Z,96033.00
2023-05-19T19:21:05.956Z,96043.97
2023-05-19T19:26:09.218Z,96038.28
2023-05-19T19:31:10.844Z,96044.47
2023-05-19T19:36:12.745Z,96033.59
2023-05-19T19:41:14.279Z,96046.41
2023-05-19T19:46:15.885Z,96053.38
2023-05-19T19:51:17.557Z,96049.66
2023-05-19T19:56:19.253Z,96046.78
2023-05-19T20:01:23.445Z,96045.38
2023-05-19T20:06:25.185Z,96049.19
2023-05-19T20:11:26.852Z,96034.00
2023-05-19T20:16:28.742Z,96046.88
2023-05-19T20:21:30.499Z,96049.03
2023-05-19T20:26:32.083Z,96047.66
2023-05-19T20:31:33.644Z,96046.19
2023-05-19T20:36:35.536Z,96052.16
2023-05-19T20:41:37.292Z,96040.00
2023-05-19T20:46:38.881Z,96041.63
2023-05-19T20:51:40.545Z,96043.34
2023-05-19T20:56:42.227Z,96037.47
2023-05-19T21:01:45.567Z,96041.88
2023-05-19T21:06:47.275Z,96037.22
2023-05-19T21:11:49.037Z,96035.66
2023-05-19T21:16:53.812Z,96036.09
2023-05-19T21:21:56.943Z,96030.66
2023-05-19T21:26:58.522Z,96042.56
2023-05-19T21:32:00.130Z,96042.66
2023-05-19T21:37:01.766Z,96045.50
2023-05-19T21:42:03.955Z,96044.38
2023-05-19T21:47:05.533Z,96037.28
2023-05-19T21:52:07.878Z,96039.69
2023-05-19T21:57:11.110Z,96037.34
2023-05-19T22:02:12.778Z,96040.97
2023-05-19T22:07:14.350Z,96043.78
2023-05-19T22:12:15.880Z,96035.16
2023-05-19T22:17:17.499Z,96036.03
2023-05-19T22:22:19.010Z,96032.56
2023-05-19T22:27:20.646Z,96027.13
2023-05-19T22:32:22.173Z,96024.78
2023-05-19T22:37:24.471Z,96016.94
2023-05-19T22:42:26.829Z,96009.53
2023-05-19T22:47:29.622Z,96001.22
2023-05-19T22:52:31.283Z,96009.53
2023-05-19T22:57:32.851Z,96002.06
2023-05-19T23:02:34.485Z,96002.53
2023-05-19T23:07:36.285Z,95998.19
2023-05-19T23:12:37.842Z,95998.63
2023-05-19T23:17:39.364Z,95989.22
2023-05-19T23:22:41.063Z,95989.28
2023-05-19T23:27:42.725Z,95987.75
2023-05-19T23:32:47.323Z,95985.06
2023-05-19T23:37:48.856Z,95981.97
2023-05-19T23:42:50.404Z,95972.97
2023-05-19T23:47:52.133Z,95979.75
2023-05-19T23:52:53.684Z,95973.13
2023-05-19T23:57:55.257Z,95968.91
